Time;durP1;ratioP1;P1;durP2;ratioP2;P2;SDS_P1;SDS_P2;PMS_P1;PMS_P2;Temp;Humidity;BMP_temperature;BMP_pressure;BME280_temperature;BME280_humidity;BME280_pressure;Samples;Min_cycle;Max_cycle;Signal;HPM_P1;HPM_P2
2021/05/26 00:00:08;;;;;;;4.10;0.98;;;;;;;9.40;63.71;98921.00;5026051;28;20034;-70
2021/05/26 00:02:34;;;;;;;1.50;0.75;;;;;;;9.28;63.93;98906.38;5025627;28;20474;-70
2021/05/26 00:04:59;;;;;;;1.67;0.68;;;;;;;9.54;63.35;98912.03;5029818;28;20069;-70
2021/05/26 00:07:24;;;;;;;2.53;0.80;;;;;;;9.45;63.52;98923.97;5019360;28;20181;-70
2021/05/26 00:09:50;;;;;;;2.85;0.90;;;;;;;9.37;63.94;98916.84;5012891;28;20049;-69
2021/05/26 00:12:15;;;;;;;2.83;0.70;;;;;;;9.29;64.02;98916.97;5012612;28;20034;-70
2021/05/26 00:14:41;;;;;;;1.58;0.70;;;;;;;9.19;64.44;98898.38;5018916;28;20364;-70
2021/05/26 00:17:06;;;;;;;2.22;0.60;;;;;;;9.24;65.37;98908.59;5023677;28;20732;-69
2021/05/26 00:19:32;;;;;;;3.05;0.70;;;;;;;9.19;64.41;98901.06;5030120;28;20017;-69
2021/05/26 00:21:57;;;;;;;2.45;0.55;;;;;;;9.30;64.68;98902.44;5017845;28;20336;-70
2021/05/26 00:24:22;;;;;;;1.55;0.55;;;;;;;9.30;64.71;98907.84;5018963;28;20026;-69
2021/05/26 00:26:48;;;;;;;3.45;0.80;;;;;;;9.22;64.87;98886.34;5017310;28;20040;-70
2021/05/26 00:29:13;;;;;;;2.00;0.80;;;;;;;9.31;64.90;98898.72;5032059;28;20037;-71
2021/05/26 00:31:39;;;;;;;5.43;0.73;;;;;;;9.31;64.99;98898.72;5047209;28;20021;-69
2021/05/26 00:34:04;;;;;;;2.88;0.70;;;;;;;9.27;65.02;98885.78;5025634;28;20384;-69
2021/05/26 00:36:30;;;;;;;1.20;0.60;;;;;;;9.28;65.24;98891.00;5022248;28;20481;-70
2021/05/26 00:38:56;;;;;;;2.40;0.60;;;;;;;9.23;65.29;98877.25;5030313;28;20025;-69
2021/05/26 00:41:26;;;;;;;1.15;0.75;;;;;;;9.35;65.46;98889.22;5029436;28;20112;-70
2021/05/26 00:43:52;;;;;;;2.30;0.80;;;;;;;9.31;65.25;98869.00;5026934;28;20025;-70
2021/05/26 00:46:17;;;;;;;2.60;0.80;;;;;;;9.39;65.49;98879.69;5018131;28;20029;-69
2021/05/26 00:48:42;;;;;;;2.50;0.95;;;;;;;9.36;65.76;98880.06;5030012;28;20440;-70
2021/05/26 00:51:08;;;;;;;6.05;1.60;;;;;;;9.35;65.42;98872.16;5029815;28;20051;-70
2021/05/26 00:53:35;;;;;;;5.72;1.30;;;;;;;9.36;66.41;98865.75;5030661;28;20014;-70
2021/05/26 00:56:00;;;;;;;4.90;1.10;;;;;;;9.59;64.95;98873.63;5020678;28;20061;-70
2021/05/26 00:58:26;;;;;;;2.90;1.42;;;;;;;9.60;64.78;98867.19;5029915;28;20068;-70
2021/05/26 01:00:52;;;;;;;3.00;1.10;;;;;;;9.69;64.95;98863.28;5030875;28;20057;-69
2021/05/26 01:03:17;;;;;;;2.88;1.10;;;;;;;9.65;65.34;98852.06;5027330;28;20026;-69
2021/05/26 01:05:43;;;;;;;3.25;0.90;;;;;;;9.73;66.49;98848.38;5030643;28;20111;-70
2021/05/26 01:08:09;;;;;;;4.55;1.20;;;;;;;9.68;66.89;98861.63;5029867;28;20471;-70
2021/05/26 01:10:35;;;;;;;5.63;1.38;;;;;;;9.71;66.52;98853.13;5031507;28;20030;-71
2021/05/26 01:13:01;;;;;;;4.97;1.00;;;;;;;9.76;66.58;98858.78;5031443;28;20479;-69
2021/05/26 01:15:26;;;;;;;2.30;0.82;;;;;;;9.64;67.17;98852.25;5013565;28;20038;-70
2021/05/26 01:17:52;;;;;;;4.65;1.17;;;;;;;9.53;67.49;98839.28;5012407;28;20069;-69
2021/05/26 01:20:22;;;;;;;4.32;1.25;;;;;;;9.53;67.62;98844.69;5024419;28;20029;-69
2021/05/26 01:22:48;;;;;;;2.65;0.82;;;;;;;9.51;67.88;98841.34;5011787;28;20041;-69
2021/05/26 01:25:13;;;;;;;3.17;0.90;;;;;;;9.54;67.69;98843.66;5015551;28;20037;-70
2021/05/26 01:27:39;;;;;;;2.53;0.80;;;;;;;9.46;67.92;98819.47;5017249;28;20030;-71
2021/05/26 01:30:08;;;;;;;2.85;0.90;;;;;;;9.56;67.86;98838.88;5033753;28;20067;-70
2021/05/26 01:32:45;;;;;;;5.45;0.80;;;;;;;9.62;67.00;98836.25;5019228;28;20026;-69
2021/05/26 01:35:13;;;;;;;5.22;1.20;;;;;;;9.57;66.99;98844.09;5019285;28;20447;-70
2021/05/26 01:37:41;;;;;;;2.92;1.27;;;;;;;9.61;67.20;98828.31;5021281;28;20025;-70
2021/05/26 01:40:08;;;;;;;5.55;1.25;;;;;;;9.58;67.08;98836.81;5027551;28;20112;-69
2021/05/26 01:42:34;;;;;;;1.83;0.70;;;;;;;9.56;67.46;98830.78;5034639;28;20025;-70
2021/05/26 01:45:00;;;;;;;3.35;0.70;;;;;;;9.61;66.96;98812.13;5026931;28;20017;-71
2021/05/26 01:47:25;;;;;;;3.20;1.08;;;;;;;9.74;67.27;98817.63;5017340;28;20091;-70
2021/05/26 01:49:51;;;;;;;3.90;1.40;;;;;;;9.70;67.59;98802.84;5021986;28;20025;-69
2021/05/26 01:52:16;;;;;;;4.22;0.90;;;;;;;9.84;67.55;98804.59;5019301;28;20033;-69
2021/05/26 01:54:42;;;;;;;2.95;1.25;;;;;;;9.82;67.30;98809.38;5025460;28;20026;-70
2021/05/26 01:57:07;;;;;;;4.05;1.48;;;;;;;9.78;67.95;98797.28;5033576;28;20037;-70
2021/05/26 01:59:32;;;;;;;4.45;1.08;;;;;;;9.80;67.96;98803.34;5014767;28;20072;-69
2021/05/26 02:01:58;;;;;;;2.92;1.08;;;;;;;9.97;67.71;98800.31;5020885;28;20029;-70
2021/05/26 02:04:23;;;;;;;1.80;0.80;;;;;;;9.87;67.68;98793.38;5025972;28;20029;-69
2021/05/26 02:07:08;;;;;;;3.38;0.80;;;;;;;10.08;67.06;98808.66;5027780;28;20065;-69
2021/05/26 02:09:35;;;;;;;2.70;0.80;;;;;;;10.15;67.17;98808.72;5034572;28;20502;-70
2021/05/26 02:12:22;;;;;;;1.60;0.80;;;;;;;10.06;68.06;98805.34;5050582;23;20077;-68
2021/05/26 02:14:57;;;;;;;5.78;0.70;;;;;;;10.00;68.27;98789.09;5015584;28;20072;-65
2021/05/26 02:17:22;;;;;;;5.60;0.77;;;;;;;10.04;68.32;98793.06;5014938;28;20483;-66
2021/05/26 02:19:49;;;;;;;5.80;0.60;;;;;;;10.05;68.19;98792.03;5016549;28;20029;-66
2021/05/26 02:22:14;;;;;;;4.38;1.10;;;;;;;9.97;68.19;98775.97;5030317;28;20045;-65
2021/05/26 02:24:41;;;;;;;2.85;0.80;;;;;;;10.08;68.06;98778.09;5029220;28;20039;-68
2021/05/26 02:27:07;;;;;;;1.70;0.70;;;;;;;10.12;67.82;98776.69;5002290;28;20428;-65
2021/05/26 02:29:32;;;;;;;1.40;0.50;;;;;;;10.16;67.79;98772.53;5028354;28;20433;-65
2021/05/26 02:31:58;;;;;;;2.75;0.70;;;;;;;10.17;67.87;98778.78;5026810;28;20037;-66
2021/05/26 02:34:23;;;;;;;1.73;0.50;;;;;;;10.19;67.71;98772.16;5032804;28;20538;-66
2021/05/26 02:36:48;;;;;;;2.33;0.60;;;;;;;10.25;67.52;98765.91;5013965;28;20558;-65
2021/05/26 02:39:14;;;;;;;3.75;1.05;;;;;;;10.16;67.45;98750.91;5008747;28;20056;-69
2021/05/26 02:41:39;;;;;;;3.78;1.05;;;;;;;10.23;67.31;98756.34;5010397;28;20074;-67
2021/05/26 02:44:05;;;;;;;2.97;0.60;;;;;;;10.26;67.17;98748.66;5014274;28;20113;-66
2021/05/26 02:46:30;;;;;;;2.38;0.70;;;;;;;10.31;66.67;98756.19;5030500;28;20025;-67
2021/05/26 02:48:56;;;;;;;1.60;0.60;;;;;;;10.26;66.94;98755.94;5014190;28;20517;-67
2021/05/26 02:51:22;;;;;;;2.72;0.80;;;;;;;10.26;66.84;98759.47;5014533;28;20034;-66
2021/05/26 02:53:47;;;;;;;5.57;0.60;;;;;;;10.17;66.96;98746.34;5013157;28;20034;-65
2021/05/26 02:56:12;;;;;;;2.42;0.57;;;;;;;10.33;66.30;98750.59;5011104;28;20041;-67
2021/05/26 02:58:39;;;;;;;1.98;0.68;;;;;;;10.36;66.13;98763.69;5014208;28;20029;-67
2021/05/26 03:01:04;;;;;;;2.95;0.40;;;;;;;10.42;65.80;98768.28;5013775;28;20479;-67
2021/05/26 03:03:30;;;;;;;0.93;0.50;;;;;;;10.35;66.23;98762.88;5012088;28;20032;-67
2021/05/26 03:05:55;;;;;;;1.48;0.50;;;;;;;10.37;66.04;98770.75;5013571;28;20022;-65
2021/05/26 03:08:20;;;;;;;1.45;0.30;;;;;;;10.38;66.00;98772.44;5014929;28;20472;-67
2021/05/26 03:10:46;;;;;;;2.72;0.40;;;;;;;10.41;65.62;98774.75;5008781;28;20038;-66
2021/05/26 03:13:11;;;;;;;3.65;0.63;;;;;;;10.44;65.49;98774.34;5012643;28;20120;-67
2021/05/26 03:15:36;;;;;;;1.48;0.30;;;;;;;10.50;65.65;98771.63;5004779;28;20034;-67
2021/05/26 03:18:03;;;;;;;2.90;0.52;;;;;;;10.48;65.62;98767.50;5013956;28;20084;-66
2021/05/26 03:20:28;;;;;;;1.27;0.65;;;;;;;10.57;65.53;98771.66;5016959;28;20057;-67
2021/05/26 03:22:53;;;;;;;1.48;0.60;;;;;;;10.54;66.07;98769.38;5014738;28;20510;-67
2021/05/26 03:25:19;;;;;;;7.47;0.70;;;;;;;10.56;65.78;98764.59;5014084;28;20037;-67
2021/05/26 03:27:44;;;;;;;1.80;0.40;;;;;;;10.62;65.82;98761.06;5019727;28;20128;-66
2021/05/26 03:30:12;;;;;;;2.42;0.60;;;;;;;10.53;66.11;98762.28;5027378;28;20068;-67
2021/05/26 03:32:39;;;;;;;6.57;0.45;;;;;;;10.54;66.51;98769.38;5013334;28;20332;-66
2021/05/26 03:35:05;;;;;;;1.88;0.50;;;;;;;10.56;66.76;98761.91;5031751;28;20025;-67
2021/05/26 03:37:30;;;;;;;2.53;0.55;;;;;;;10.51;67.52;98770.63;5028616;28;20033;-66
2021/05/26 03:39:56;;;;;;;1.40;0.30;;;;;;;10.43;67.98;98761.88;5013464;28;20069;-67
2021/05/26 03:42:21;;;;;;;4.75;0.50;;;;;;;10.45;68.18;98762.47;5013210;28;20252;-66
2021/05/26 03:44:47;;;;;;;2.83;0.50;;;;;;;10.33;68.62;98766.81;5016748;28;20553;-66
2021/05/26 03:47:12;;;;;;;3.83;1.02;;;;;;;10.25;70.17;98744.28;5001130;28;20030;-66
2021/05/26 03:49:38;;;;;;;1.45;0.77;;;;;;;10.20;70.59;98748.63;5031632;28;20077;-66
2021/05/26 03:52:03;;;;;;;1.63;0.60;;;;;;;10.17;70.46;98757.16;5011700;28;20376;-66
2021/05/26 03:54:28;;;;;;;4.13;0.50;;;;;;;10.12;70.66;98744.25;5014699;28;20105;-66
2021/05/26 03:56:53;;;;;;;2.63;0.40;;;;;;;10.05;71.13;98733.38;5015149;28;20026;-69
2021/05/26 03:59:19;;;;;;;4.22;0.77;;;;;;;10.15;70.88;98743.81;5004915;28;20037;-68
2021/05/26 04:01:44;;;;;;;2.75;0.68;;;;;;;10.10;71.27;98735.50;5008593;28;20034;-70
2021/05/26 04:04:09;;;;;;;5.03;0.68;;;;;;;10.14;71.58;98736.78;5010988;28;20534;-68
2021/05/26 04:06:35;;;;;;;2.90;0.50;;;;;;;10.10;72.09;98739.03;5012891;28;20065;-68
2021/05/26 04:09:00;;;;;;;2.03;0.40;;;;;;;10.10;71.96;98740.91;5022366;28;20100;-67
2021/05/26 04:11:26;;;;;;;2.63;0.60;;;;;;;10.15;72.11;98737.59;5021777;28;20725;-70
2021/05/26 04:13:51;;;;;;;1.70;0.55;;;;;;;10.18;71.76;98727.19;5013126;28;20024;-69
2021/05/26 04:16:16;;;;;;;4.97;0.65;;;;;;;10.12;71.96;98738.00;5012823;28;20422;-68
2021/05/26 04:18:42;;;;;;;2.53;0.60;;;;;;;10.10;72.47;98735.50;5008375;28;20108;-75
2021/05/26 04:21:07;;;;;;;3.78;0.57;;;;;;;10.08;72.48;98715.94;5014171;28;20030;-73
2021/05/26 04:23:33;;;;;;;1.88;0.75;;;;;;;10.12;71.72;98725.31;5011002;28;20036;-77
2021/05/26 04:25:59;;;;;;;4.22;0.85;;;;;;;10.09;72.49;98731.97;5009154;28;20036;-68
2021/05/26 04:28:24;;;;;;;4.43;0.60;;;;;;;10.09;72.57;98729.25;4994872;28;20105;-73
2021/05/26 04:30:50;;;;;;;2.42;0.88;;;;;;;10.04;72.77;98730.91;5005728;28;20083;-73
2021/05/26 04:33:16;;;;;;;3.10;0.65;;;;;;;9.99;73.38;98744.19;5004573;28;20030;-73
2021/05/26 04:35:42;;;;;;;2.78;0.85;;;;;;;9.98;73.98;98745.19;5004023;28;20026;-75
2021/05/26 04:38:08;;;;;;;5.00;0.98;;;;;;;9.86;74.43;98734.16;5011015;28;20026;-76
2021/05/26 04:40:33;;;;;;;3.65;0.70;;;;;;;9.80;75.29;98746.59;5012238;28;20395;-74
2021/05/26 04:42:58;;;;;;;3.30;0.93;;;;;;;9.68;75.81;98742.78;5012746;28;20101;-74
2021/05/26 04:45:24;;;;;;;5.45;0.70;;;;;;;9.67;75.87;98738.41;4997936;28;20018;-73
2021/05/26 04:47:49;;;;;;;2.35;0.90;;;;;;;9.48;76.36;98728.31;5009987;28;20026;-76
2021/05/26 04:50:14;;;;;;;5.07;0.93;;;;;;;9.53;76.62;98736.66;5010744;28;20535;-73
2021/05/26 04:52:40;;;;;;;2.10;0.60;;;;;;;9.51;77.04;98723.38;4994942;28;20026;-72
2021/05/26 04:55:06;;;;;;;4.43;1.05;;;;;;;9.56;76.94;98733.56;5005512;28;20022;-73
2021/05/26 04:57:31;;;;;;;3.15;0.63;;;;;;;9.57;75.77;98725.25;4999647;28;20491;-73
2021/05/26 04:59:56;;;;;;;4.00;0.88;;;;;;;9.69;76.40;98728.22;4992876;28;20030;-74
2021/05/26 05:02:22;;;;;;;3.05;0.82;;;;;;;9.69;76.12;98716.59;4995332;28;20030;-72
2021/05/26 05:04:47;;;;;;;4.15;0.73;;;;;;;9.62;76.94;98714.69;4997795;28;20030;-71
2021/05/26 05:07:12;;;;;;;5.80;1.08;;;;;;;9.70;77.17;98723.69;5009529;28;20075;-73
2021/05/26 05:09:38;;;;;;;7.53;0.90;;;;;;;9.79;76.12;98725.16;5012373;28;20018;-71
2021/05/26 05:12:04;;;;;;;4.10;0.70;;;;;;;9.80;76.77;98730.38;5009186;28;20038;-71
2021/05/26 05:14:29;;;;;;;2.08;0.73;;;;;;;9.83;76.26;98726.44;5000425;28;20029;-71
2021/05/26 05:16:54;;;;;;;2.90;0.60;;;;;;;9.75;77.43;98723.91;4998777;28;20034;-71
2021/05/26 05:19:19;;;;;;;4.28;1.13;;;;;;;9.72;76.65;98727.84;5016577;28;20104;-72
2021/05/26 05:21:45;;;;;;;3.67;0.90;;;;;;;9.67;77.20;98719.50;5015849;28;20025;-72
2021/05/26 05:24:10;;;;;;;7.38;0.93;;;;;;;9.59;77.68;98714.28;5008895;28;20038;-70
2021/05/26 05:26:35;;;;;;;3.88;0.77;;;;;;;9.50;77.96;98713.56;5015257;28;20448;-74
2021/05/26 05:29:01;;;;;;;4.63;0.90;;;;;;;9.48;78.52;98709.41;5019759;28;20034;-74
2021/05/26 05:31:26;;;;;;;5.63;0.75;;;;;;;9.47;78.54;98716.69;5015357;28;20518;-76
2021/05/26 05:33:51;;;;;;;2.58;0.70;;;;;;;9.52;79.72;98708.81;5016392;28;20052;-76
2021/05/26 05:36:16;;;;;;;1.58;0.60;;;;;;;9.51;78.39;98707.16;5016714;28;20021;-75
2021/05/26 05:38:42;;;;;;;1.73;0.70;;;;;;;9.50;78.59;98710.03;4998614;28;20114;-75
2021/05/26 05:41:08;;;;;;;3.88;0.63;;;;;;;9.28;78.98;98683.13;5023359;28;20034;-76
2021/05/26 05:43:33;;;;;;;2.10;0.60;;;;;;;9.49;79.64;98716.50;5010670;28;20025;-74
2021/05/26 05:46:01;;;;;;;1.83;0.70;;;;;;;9.40;79.91;98703.13;5013813;28;20032;-76
2021/05/26 05:48:26;;;;;;;3.55;0.98;;;;;;;9.37;79.98;98700.00;5015410;28;20026;-75
2021/05/26 05:50:51;;;;;;;3.28;0.90;;;;;;;9.40;80.14;98705.00;5011438;28;20037;-74
2021/05/26 05:53:17;;;;;;;2.83;1.10;;;;;;;9.48;79.16;98712.09;5010400;28;20017;-72
2021/05/26 05:55:42;;;;;;;5.35;0.85;;;;;;;9.42;80.49;98714.56;4999995;28;20105;-73
2021/05/26 05:58:10;;;;;;;3.85;0.70;;;;;;;9.50;81.04;98710.03;5012549;28;20108;-75
2021/05/26 06:00:37;;;;;;;5.20;1.00;;;;;;;9.42;80.94;98711.88;5020367;28;20417;-76
2021/05/26 06:03:03;;;;;;;3.88;1.27;;;;;;;9.41;81.54;98718.31;5006869;28;20034;-71
2021/05/26 06:05:28;;;;;;;9.32;0.70;;;;;;;9.35;81.63;98711.00;5013239;28;20590;-74
2021/05/26 06:07:53;;;;;;;5.95;1.00;;;;;;;9.37;82.84;98714.31;5006727;28;20036;-75
2021/05/26 06:10:19;;;;;;;1.80;1.00;;;;;;;9.42;82.83;98722.66;5009702;28;20156;-74
2021/05/26 06:12:44;;;;;;;5.03;1.25;;;;;;;9.37;82.88;98718.91;4995728;28;20026;-76
2021/05/26 06:15:10;;;;;;;5.53;1.23;;;;;;;9.43;83.30;98726.19;5000866;28;20033;-76
2021/05/26 06:17:35;;;;;;;3.50;0.93;;;;;;;9.39;83.04;98728.47;5010064;28;20061;-77
2021/05/26 06:20:01;;;;;;;4.25;1.20;;;;;;;9.32;83.91;98721.34;5004448;28;20409;-76
2021/05/26 06:22:26;;;;;;;6.50;1.05;;;;;;;9.37;83.79;98719.72;4999512;28;20110;-75
2021/05/26 06:24:51;;;;;;;2.25;1.20;;;;;;;9.40;84.31;98721.19;5002799;28;20034;-70
2021/05/26 06:27:17;;;;;;;4.60;1.45;;;;;;;9.37;84.62;98722.41;4996141;28;20443;-70
2021/05/26 06:29:42;;;;;;;7.53;0.90;;;;;;;9.29;84.61;98717.19;5005984;28;20518;-75
2021/05/26 06:32:08;;;;;;;5.05;1.20;;;;;;;9.38;84.86;98709.78;5011787;28;20030;-74
2021/05/26 06:34:33;;;;;;;5.07;1.50;;;;;;;9.39;85.46;98723.06;5013535;28;20472;-68
2021/05/26 06:36:58;;;;;;;3.83;1.42;;;;;;;9.43;85.02;98713.56;5012439;28;20060;-70
2021/05/26 06:39:24;;;;;;;3.60;1.35;;;;;;;9.42;84.58;98711.88;4999462;28;20136;-76
2021/05/26 06:41:49;;;;;;;1.45;1.05;;;;;;;9.45;84.61;98721.44;5010253;28;20029;-69
2021/05/26 06:44:14;;;;;;;4.22;1.38;;;;;;;9.44;85.21;98712.50;5014046;28;20391;-75
2021/05/26 06:46:40;;;;;;;4.03;1.10;;;;;;;9.43;85.24;98710.84;5013897;28;20551;-76
2021/05/26 06:49:06;;;;;;;2.45;1.02;;;;;;;9.54;85.44;98716.72;5007717;28;20030;-75
2021/05/26 06:51:31;;;;;;;1.48;0.93;;;;;;;9.51;85.83;98704.47;5015137;28;20088;-68
2021/05/26 06:53:57;;;;;;;2.65;0.90;;;;;;;9.55;85.50;98721.09;5015422;28;20384;-68
2021/05/26 06:56:22;;;;;;;8.13;1.15;;;;;;;9.60;86.00;98716.75;5015121;28;20105;-68
2021/05/26 06:58:48;;;;;;;2.97;1.17;;;;;;;9.66;85.73;98707.00;5000336;28;20049;-68
2021/05/26 07:01:13;;;;;;;7.30;1.33;;;;;;;9.65;85.03;98713.47;5006543;28;20132;-68
2021/05/26 07:03:38;;;;;;;2.72;1.00;;;;;;;9.72;86.04;98717.03;5013229;28;20029;-68
2021/05/26 07:06:04;;;;;;;4.25;1.20;;;;;;;9.61;85.92;98710.31;5006611;28;20029;-68
2021/05/26 07:08:31;;;;;;;2.38;0.95;;;;;;;9.64;85.92;98709.94;5004872;28;20092;-68
2021/05/26 07:10:56;;;;;;;3.92;1.30;;;;;;;9.72;86.25;98702.69;5014909;28;20034;-67
2021/05/26 07:13:21;;;;;;;4.43;0.80;;;;;;;9.60;86.13;98700.53;5007722;28;20095;-76
2021/05/26 07:15:47;;;;;;;2.95;1.00;;;;;;;9.71;86.68;98703.72;5010600;28;20045;-74
2021/05/26 07:18:12;;;;;;;4.13;1.20;;;;;;;9.69;87.19;98698.50;5012594;28;20132;-72
2021/05/26 07:20:40;;;;;;;7.95;1.23;;;;;;;9.77;87.27;98702.91;5008754;28;20034;-71
2021/05/26 07:23:06;;;;;;;3.30;1.10;;;;;;;9.80;86.41;98697.13;5012152;28;20056;-70
2021/05/26 07:25:31;;;;;;;4.57;1.10;;;;;;;9.85;85.56;98689.22;5014206;28;20119;-74
2021/05/26 07:27:56;;;;;;;4.40;1.13;;;;;;;9.93;86.54;98685.50;5004877;28;20034;-70
2021/05/26 07:30:22;;;;;;;4.68;1.42;;;;;;;9.94;87.10;98681.78;4999425;28;20048;-71
2021/05/26 07:32:48;;;;;;;4.22;1.38;;;;;;;10.00;86.70;98678.28;5008890;28;20038;-73
2021/05/26 07:35:14;;;;;;;4.85;1.20;;;;;;;10.01;86.84;98682.66;5010012;28;20053;-70
2021/05/26 07:37:40;;;;;;;3.90;1.63;;;;;;;10.05;86.83;98687.44;5008383;28;20495;-70
2021/05/26 07:40:09;;;;;;;3.55;1.40;;;;;;;9.91;86.20;98683.03;5001543;28;20025;-70
2021/05/26 07:42:35;;;;;;;;;;;;;;;9.91;86.69;98693.84;5005605;28;20531;-70
2021/05/26 07:45:00;;;;;;;5.40;1.45;;;;;;;10.05;86.88;98678.50;5011758;28;19989;-72
2021/05/26 07:47:25;;;;;;;6.95;2.35;;;;;;;10.06;85.87;98675.59;5007070;28;20025;-73
2021/05/26 07:49:52;;;;;;;7.85;2.78;;;;;;;10.06;86.06;98690.97;5002842;28;20502;-72
2021/05/26 07:52:20;;;;;;;11.90;4.30;;;;;;;10.08;86.67;98680.78;5009546;28;20030;-72
2021/05/26 07:54:46;;;;;;;9.27;2.92;;;;;;;10.13;86.70;98686.41;5013476;28;20022;-73
2021/05/26 07:57:11;;;;;;;7.63;2.13;;;;;;;10.21;86.38;98683.53;4997901;28;20030;-74
2021/05/26 07:59:37;;;;;;;4.22;1.45;;;;;;;10.23;86.29;98678.75;5013057;28;20497;-74
2021/05/26 08:02:02;;;;;;;3.53;1.27;;;;;;;10.12;86.04;98673.94;5009535;28;20033;-72
2021/05/26 08:04:27;;;;;;;6.78;1.23;;;;;;;10.26;85.91;98678.34;5008417;28;20034;-73
2021/05/26 08:06:53;;;;;;;2.83;1.20;;;;;;;10.23;86.95;98659.00;5002222;28;20057;-73
2021/05/26 08:09:18;;;;;;;3.47;1.08;;;;;;;10.30;85.85;98685.06;5001622;28;20573;-75
2021/05/26 08:11:44;;;;;;;4.03;1.30;;;;;;;10.21;86.98;98680.00;5038755;23;20068;-73
2021/05/26 08:14:09;;;;;;;6.25;1.50;;;;;;;10.09;86.12;98658.97;5007107;28;20034;-73
2021/05/26 08:16:35;;;;;;;3.95;1.27;;;;;;;10.09;86.49;98660.84;4997514;28;20018;-73
2021/05/26 08:19:00;;;;;;;6.38;1.40;;;;;;;10.10;86.45;98638.19;4995310;28;20365;-71
2021/05/26 08:21:25;;;;;;;5.43;1.40;;;;;;;10.15;87.14;98659.19;5005082;28;20045;-68
2021/05/26 08:23:51;;;;;;;5.07;1.25;;;;;;;10.19;87.73;98657.72;5012226;28;20026;-70
2021/05/26 08:26:22;;;;;;;2.17;1.20;;;;;;;10.40;86.44;98663.03;5006540;28;20061;-67
2021/05/26 08:28:52;;;;;;;5.20;1.38;;;;;;;10.17;86.93;98657.97;4996194;28;20399;-67
2021/05/26 08:31:18;;;;;;;5.50;1.15;;;;;;;10.20;87.12;98654.00;4997810;28;20033;-67
2021/05/26 08:33:44;;;;;;;6.95;1.88;;;;;;;10.26;87.58;98655.88;5004260;28;20041;-70
2021/05/26 08:36:10;;;;;;;6.10;1.67;;;;;;;10.40;87.30;98665.75;5011775;28;20033;-70
2021/05/26 08:38:35;;;;;;;7.43;1.75;;;;;;;10.15;86.70;98649.22;5005996;28;20041;-70
2021/05/26 08:41:06;;;;;;;5.72;1.90;;;;;;;10.01;88.01;98651.06;5011937;28;20037;-66
2021/05/26 08:43:35;;;;;;;9.25;1.88;;;;;;;10.19;88.12;98666.72;5009244;28;20075;-67
2021/05/26 08:46:02;;;;;;;5.53;1.70;;;;;;;10.21;88.15;98663.78;5003186;28;20105;-69
2021/05/26 08:48:30;;;;;;;6.57;1.80;;;;;;;10.21;89.40;98651.09;5003509;28;20134;-70
2021/05/26 08:50:56;;;;;;;4.30;1.50;;;;;;;10.45;88.53;98667.81;5000323;28;20392;-70
2021/05/26 08:53:22;;;;;;;7.07;2.20;;;;;;;10.57;87.85;98649.94;5009433;28;20542;-72
2021/05/26 08:55:48;;;;;;;7.35;2.38;;;;;;;10.63;88.70;98654.50;5010705;28;20157;-72
2021/05/26 08:58:13;;;;;;;9.25;1.98;;;;;;;10.79;87.06;98657.84;5006944;28;20392;-72
2021/05/26 09:00:38;;;;;;;5.47;1.98;;;;;;;10.98;87.30;98659.72;5000422;28;20030;-71
2021/05/26 09:03:05;;;;;;;5.93;1.67;;;;;;;11.16;87.15;98657.19;5011327;28;20487;-67
2021/05/26 09:05:30;;;;;;;3.25;1.48;;;;;;;11.35;84.76;98639.25;5002446;28;20056;-69
2021/05/26 09:07:56;;;;;;;6.32;1.58;;;;;;;11.56;85.80;98662.53;5000573;28;20027;-72
2021/05/26 09:10:22;;;;;;;4.60;1.48;;;;;;;11.44;85.63;98645.25;5002056;28;20057;-75
2021/05/26 09:12:50;;;;;;;3.92;2.22;;;;;;;11.49;85.25;98642.75;4991804;28;20037;-72
2021/05/26 09:15:17;;;;;;;4.82;1.10;;;;;;;11.51;81.81;98650.66;5005610;28;20701;-68
2021/05/26 09:17:51;;;;;;;3.55;1.10;;;;;;;11.27;82.42;98649.47;4998363;28;20113;-73
2021/05/26 09:20:30;;;;;;;3.08;0.88;;;;;;;10.87;83.78;98660.34;4992418;28;20018;-71
2021/05/26 09:23:06;;;;;;;2.47;0.90;;;;;;;10.69;84.36;98642.88;4992432;28;20511;-72
2021/05/26 09:25:37;;;;;;;3.33;1.05;;;;;;;10.63;84.79;98646.38;5001287;28;20179;-69
2021/05/26 09:28:23;;;;;;;5.45;1.48;;;;;;;10.82;82.25;98644.75;5010200;28;20030;-70
2021/05/26 09:30:52;;;;;;;3.50;1.17;;;;;;;10.98;82.79;98651.59;5011838;28;20430;-65
2021/05/26 09:33:21;;;;;;;;;;;;;;;10.94;82.79;98655.75;5027326;28;20052;-70
2021/05/26 09:35:47;;;;;;;4.30;1.00;;;;;;;10.90;82.88;98646.41;5006698;28;19949;-66
2021/05/26 09:38:12;;;;;;;1.67;0.77;;;;;;;10.98;80.90;98632.66;4995061;28;20475;-70
2021/05/26 09:40:40;;;;;;;1.83;0.75;;;;;;;11.36;80.28;98650.91;5009069;28;20022;-68
2021/05/26 09:43:05;;;;;;;2.80;0.80;;;;;;;11.39;80.65;98645.88;4996754;28;20084;-70
2021/05/26 09:45:31;;;;;;;2.10;0.68;;;;;;;11.28;80.34;98645.72;4992349;28;20022;-64
2021/05/26 09:47:58;;;;;;;2.05;0.95;;;;;;;11.09;80.67;98648.25;4991537;28;20026;-65
2021/05/26 09:50:28;;;;;;;1.77;0.80;;;;;;;11.22;80.86;98646.56;4995428;28;20030;-64
2021/05/26 09:53:12;;;;;;;2.97;0.90;;;;;;;10.93;81.37;98640.56;4995582;28;20411;-65
2021/05/26 09:55:42;;;;;;;2.33;0.95;;;;;;;10.91;78.73;98629.94;5006517;28;20026;-64
2021/05/26 09:58:10;;;;;;;2.50;0.85;;;;;;;11.09;78.41;98645.53;4995544;28;20105;-64
2021/05/26 10:00:38;;;;;;;3.63;0.85;;;;;;;11.11;80.25;98646.16;5000356;28;20030;-64
2021/05/26 10:03:03;;;;;;;4.03;1.15;;;;;;;11.40;79.21;98642.16;5001726;28;20026;-64
2021/05/26 10:05:29;;;;;;;3.80;1.15;;;;;;;11.52;76.81;98645.00;5000358;28;20398;-64
2021/05/26 10:07:56;;;;;;;1.45;0.82;;;;;;;11.39;78.30;98637.75;4995498;28;20025;-64
2021/05/26 10:10:24;;;;;;;7.07;0.88;;;;;;;11.61;77.06;98638.31;4995029;28;20471;-64
2021/05/26 10:12:56;;;;;;;1.83;0.80;;;;;;;11.71;76.67;98640.59;5004547;28;20045;-64
2021/05/26 10:15:24;;;;;;;8.98;0.93;;;;;;;11.30;74.46;98620.09;4998739;28;20023;-64
2021/05/26 10:17:52;;;;;;;4.35;1.00;;;;;;;11.44;77.26;98645.25;5011835;28;20038;-64
2021/05/26 10:20:20;;;;;;;5.35;0.82;;;;;;;11.56;78.18;98638.13;4993489;28;20073;-64
2021/05/26 10:22:48;;;;;;;2.67;0.97;;;;;;;11.71;77.13;98642.44;4992049;28;20034;-64
2021/05/26 10:25:14;;;;;;;4.57;0.90;;;;;;;11.90;75.74;98640.75;4992193;28;20041;-65
2021/05/26 10:27:50;;;;;;;4.03;0.80;;;;;;;11.97;76.02;98634.25;4990926;28;20038;-65
2021/05/26 10:30:17;;;;;;;2.25;0.68;;;;;;;11.75;75.11;98643.69;4993141;28;20134;-64
2021/05/26 10:33:00;;;;;;;3.30;0.75;;;;;;;11.73;75.71;98633.06;5000960;28;20026;-63
2021/05/26 10:35:29;;;;;;;3.17;0.70;;;;;;;11.93;74.14;98637.59;4997040;28;20380;-65
2021/05/26 10:38:02;;;;;;;1.17;0.52;;;;;;;12.39;74.60;98642.75;4991866;28;20030;-65
2021/05/26 10:40:31;;;;;;;4.35;0.98;;;;;;;12.48;73.60;98630.56;4991419;28;20117;-63
2021/05/26 10:43:17;;;;;;;2.70;0.90;;;;;;;12.14;73.16;98637.28;4993422;28;20495;-63
2021/05/26 10:45:44;;;;;;;2.25;0.60;;;;;;;12.00;75.17;98635.69;4993191;28;20046;-64
2021/05/26 10:48:10;;;;;;;1.65;0.50;;;;;;;12.46;73.68;98632.69;4996279;28;20121;-63
2021/05/26 10:51:01;;;;;;;1.90;0.55;;;;;;;12.07;75.58;98637.28;5010956;28;20105;-68
2021/05/26 10:53:39;;;;;;;3.17;0.73;;;;;;;12.22;72.67;98630.75;4991536;28;20500;-67
2021/05/26 10:56:04;;;;;;;3.97;0.80;;;;;;;12.27;73.26;98623.63;5006021;28;20026;-69
2021/05/26 10:58:42;;;;;;;1.02;0.50;;;;;;;12.13;72.80;98635.63;5009137;28;20541;-69
2021/05/26 11:01:08;;;;;;;1.52;0.60;;;;;;;12.25;72.34;98639.28;5004716;28;20018;-69
2021/05/26 11:03:38;;;;;;;1.73;0.50;;;;;;;12.10;71.46;98624.34;4995102;28;20042;-65
2021/05/26 11:06:13;;;;;;;0.45;0.20;;;;;;;12.40;73.07;98630.84;4997908;28;20038;-66
2021/05/26 11:11:24;;;;;;;5.40;0.60;;;;;;;12.56;71.32;98617.81;5003920;28;20097;-66
2021/05/26 11:16:49;;;;;;;0.60;0.30;;;;;;;12.72;71.03;98611.81;5012439;28;20045;-66
2021/05/26 11:19:23;;;;;;;5.25;0.40;;;;;;;12.67;69.20;98612.47;5001284;28;20054;-65
2021/05/26 11:22:03;;;;;;;0.52;0.20;;;;;;;12.40;70.13;98603.72;4990512;28;20582;-66
2021/05/26 11:24:35;;;;;;;1.70;0.43;;;;;;;12.69;71.88;98610.38;4995560;28;20583;-67
2021/05/26 11:27:02;;;;;;;1.95;0.30;;;;;;;12.68;69.08;98614.16;4991641;28;20069;-66
2021/05/26 11:29:27;;;;;;;1.10;0.30;;;;;;;12.93;69.92;98610.59;4992346;28;20030;-67
2021/05/26 11:32:14;;;;;;;1.13;0.40;;;;;;;12.75;69.90;98597.78;4990802;28;20440;-67
2021/05/26 11:34:42;;;;;;;2.10;0.30;;;;;;;12.79;67.77;98604.44;4999237;28;20025;-68
2021/05/26 11:37:08;;;;;;;0.45;0.20;;;;;;;12.59;69.67;98590.22;4994019;28;20030;-67
2021/05/26 11:39:35;;;;;;;0.47;0.25;;;;;;;12.74;69.42;98617.03;4993215;28;20037;-63